NAO YSSY-YMLT
Flight info
| Callsign | NAO |
|---|---|
| Flight time | 1h 52m |
| Altitude | 28000 |
| Route | GROOK1/16R WOL H20 OTKED J22 LT |
| Aircraft | B350/L-SDFGRW/S |
Departure
| Time | 2026-05-05 04:30 |
|---|---|
| Airport | Sydney Kingsford Smith International Airport (YSSY) |
Arrival
| Time | 2026-05-05 06:23 |
|---|---|
| Airport | Launceston Airport (YMLT) |
| Time | Latitude | Longitude | Altitude | Speed | Heading |
|---|---|---|---|---|---|
| 2026-05-05 04:14 | -33.93409 | 151.18848 | 26 ft | 0 kts | 188° |
| 2026-05-05 04:23 | -33.93410 | 151.18847 | 26 ft | 2 kts | 188° |
| 2026-05-05 04:24 | -33.93441 | 151.18861 | 26 ft | 9 kts | 162° |
| 2026-05-05 04:24 | -33.93457 | 151.18863 | 26 ft | 0 kts | 185° |
| 2026-05-05 04:25 | -33.93483 | 151.18858 | 26 ft | 8 kts | 191° |
| 2026-05-05 04:25 | -33.93541 | 151.18845 | 27 ft | 9 kts | 188° |
| 2026-05-05 04:25 | -33.93590 | 151.18822 | 26 ft | 6 kts | 237° |
| 2026-05-05 04:25 | -33.93601 | 151.18787 | 26 ft | 4 kts | 252° |
| 2026-05-05 04:26 | -33.93611 | 151.18746 | 27 ft | 6 kts | 255° |
| 2026-05-05 04:26 | -33.93623 | 151.18694 | 26 ft | 7 kts | 255° |
| 2026-05-05 04:26 | -33.93638 | 151.18633 | 26 ft | 8 kts | 253° |
| 2026-05-05 04:26 | -33.93654 | 151.18565 | 26 ft | 9 kts | 253° |
| 2026-05-05 04:27 | -33.93672 | 151.18490 | 26 ft | 10 kts | 253° |
| 2026-05-05 04:27 | -33.93693 | 151.18404 | 26 ft | 11 kts | 253° |
| 2026-05-05 04:27 | -33.93715 | 151.18313 | 26 ft | 11 kts | 253° |
| 2026-05-05 04:27 | -33.93735 | 151.18222 | 26 ft | 12 kts | 254° |
| 2026-05-05 04:28 | -33.93758 | 151.18127 | 26 ft | 11 kts | 254° |
| 2026-05-05 04:28 | -33.93777 | 151.18045 | 26 ft | 9 kts | 254° |
| 2026-05-05 04:28 | -33.93792 | 151.17978 | 26 ft | 8 kts | 253° |
| 2026-05-05 04:28 | -33.93814 | 151.17889 | 26 ft | 17 kts | 253° |
| 2026-05-05 04:29 | -33.93847 | 151.17749 | 26 ft | 16 kts | 255° |
| 2026-05-05 04:29 | -33.93876 | 151.17627 | 25 ft | 14 kts | 253° |
| 2026-05-05 04:29 | -33.93900 | 151.17523 | 24 ft | 12 kts | 253° |
| 2026-05-05 04:29 | -33.93930 | 151.17434 | 25 ft | 10 kts | 218° |
| 2026-05-05 04:30 | -33.94168 | 151.17482 | 25 ft | 80 kts | 168° |
| 2026-05-05 04:30 | -33.94938 | 151.17670 | 101 ft | 138 kts | 170° |
| 2026-05-05 04:30 | -33.95980 | 151.17895 | 364 ft | 159 kts | 170° |
| 2026-05-05 04:30 | -33.97092 | 151.17960 | 753 ft | 162 kts | 200° |
| 2026-05-05 04:31 | -33.98009 | 151.17200 | 1169 ft | 164 kts | 226° |
| 2026-05-05 04:31 | -33.98870 | 151.16243 | 1559 ft | 171 kts | 226° |
| 2026-05-05 04:31 | -33.99773 | 151.15278 | 1959 ft | 175 kts | 226° |
| 2026-05-05 04:31 | -34.00687 | 151.14298 | 2351 ft | 176 kts | 226° |
| 2026-05-05 04:32 | -34.01643 | 151.13363 | 2748 ft | 179 kts | 217° |
| 2026-05-05 04:32 | -34.02727 | 151.12603 | 3151 ft | 182 kts | 213° |
| 2026-05-05 04:32 | -34.03854 | 151.11884 | 3545 ft | 185 kts | 211° |
| 2026-05-05 04:32 | -34.04985 | 151.11197 | 3937 ft | 184 kts | 212° |
| 2026-05-05 04:33 | -34.06125 | 151.10496 | 4329 ft | 182 kts | 212° |
| 2026-05-05 04:33 | -34.07246 | 151.09802 | 4729 ft | 179 kts | 212° |
| 2026-05-05 04:33 | -34.08348 | 151.09107 | 5131 ft | 179 kts | 212° |
| 2026-05-05 04:33 | -34.09458 | 151.08422 | 5529 ft | 183 kts | 211° |
| 2026-05-05 04:34 | -34.10655 | 151.07692 | 5940 ft | 201 kts | 212° |
| 2026-05-05 04:34 | -34.11908 | 151.06881 | 6360 ft | 207 kts | 213° |
| 2026-05-05 04:34 | -34.13199 | 151.06053 | 6755 ft | 212 kts | 212° |
| 2026-05-05 04:34 | -34.14525 | 151.05219 | 7152 ft | 217 kts | 212° |
| 2026-05-05 04:35 | -34.15871 | 151.04371 | 7553 ft | 220 kts | 212° |
| 2026-05-05 04:35 | -34.17240 | 151.03511 | 7957 ft | 222 kts | 212° |
| 2026-05-05 04:35 | -34.18619 | 151.02644 | 8363 ft | 224 kts | 213° |
| 2026-05-05 04:35 | -34.20011 | 151.01767 | 8774 ft | 227 kts | 213° |
| 2026-05-05 04:36 | -34.21395 | 151.00900 | 9175 ft | 226 kts | 213° |
| 2026-05-05 04:36 | -34.22785 | 151.00020 | 9597 ft | 226 kts | 214° |
| 2026-05-05 04:36 | -34.24182 | 150.99130 | 10017 ft | 228 kts | 213° |
| 2026-05-05 04:36 | -34.25598 | 150.98241 | 10399 ft | 230 kts | 213° |
| 2026-05-05 04:37 | -34.27022 | 150.97344 | 10784 ft | 231 kts | 214° |
| 2026-05-05 04:37 | -34.28454 | 150.96439 | 11172 ft | 232 kts | 214° |
| 2026-05-05 04:37 | -34.29888 | 150.95532 | 11562 ft | 233 kts | 214° |
| 2026-05-05 04:37 | -34.31330 | 150.94621 | 11955 ft | 234 kts | 214° |
| 2026-05-05 04:38 | -34.32773 | 150.93707 | 12355 ft | 234 kts | 214° |
| 2026-05-05 04:38 | -34.34223 | 150.92791 | 12760 ft | 235 kts | 214° |
| 2026-05-05 04:38 | -34.35670 | 150.91874 | 13174 ft | 235 kts | 214° |
| 2026-05-05 04:38 | -34.37123 | 150.90953 | 13597 ft | 236 kts | 214° |
| 2026-05-05 04:39 | -34.38564 | 150.90039 | 13981 ft | 237 kts | 214° |
| 2026-05-05 04:39 | -34.40040 | 150.89107 | 14284 ft | 241 kts | 214° |
| 2026-05-05 04:39 | -34.41535 | 150.88158 | 14590 ft | 243 kts | 214° |
| 2026-05-05 04:39 | -34.43041 | 150.87203 | 14901 ft | 245 kts | 214° |
| 2026-05-05 04:40 | -34.44559 | 150.86240 | 15218 ft | 247 kts | 214° |
| 2026-05-05 04:40 | -34.46085 | 150.85273 | 15536 ft | 248 kts | 214° |
| 2026-05-05 04:40 | -34.47615 | 150.84302 | 15851 ft | 249 kts | 214° |
| 2026-05-05 04:40 | -34.49152 | 150.83325 | 16174 ft | 249 kts | 214° |
| 2026-05-05 04:41 | -34.50694 | 150.82347 | 16498 ft | 250 kts | 214° |
| 2026-05-05 04:41 | -34.52232 | 150.81367 | 16831 ft | 250 kts | 214° |
| 2026-05-05 04:41 | -34.53773 | 150.80387 | 17156 ft | 250 kts | 215° |
| 2026-05-05 04:41 | -34.55314 | 150.79408 | 17495 ft | 250 kts | 215° |
| 2026-05-05 04:42 | -34.56851 | 150.78421 | 17836 ft | 249 kts | 216° |
| 2026-05-05 04:42 | -34.58371 | 150.77404 | 18178 ft | 249 kts | 216° |
| 2026-05-05 04:42 | -34.59872 | 150.76404 | 18500 ft | 250 kts | 216° |
| 2026-05-05 04:42 | -34.61399 | 150.75395 | 18797 ft | 250 kts | 216° |
| 2026-05-05 04:43 | -34.62933 | 150.74379 | 19063 ft | 251 kts | 216° |
| 2026-05-05 04:43 | -34.64478 | 150.73357 | 19276 ft | 255 kts | 216° |
| 2026-05-05 04:43 | -34.66044 | 150.72319 | 19490 ft | 257 kts | 216° |
| 2026-05-05 04:43 | -34.67624 | 150.71271 | 19703 ft | 260 kts | 216° |
| 2026-05-05 04:44 | -34.69218 | 150.70218 | 19924 ft | 262 kts | 216° |
| 2026-05-05 04:44 | -34.70818 | 150.69157 | 20142 ft | 262 kts | 216° |
| 2026-05-05 04:44 | -34.72423 | 150.68090 | 20365 ft | 264 kts | 216° |
| 2026-05-05 04:44 | -34.74038 | 150.67019 | 20584 ft | 264 kts | 217° |
| 2026-05-05 04:45 | -34.75653 | 150.65947 | 20809 ft | 264 kts | 216° |
| 2026-05-05 04:45 | -34.77261 | 150.64879 | 21031 ft | 263 kts | 217° |
| 2026-05-05 04:45 | -34.78866 | 150.63812 | 21256 ft | 263 kts | 217° |
| 2026-05-05 04:45 | -34.80467 | 150.62746 | 21485 ft | 263 kts | 217° |
| 2026-05-05 04:46 | -34.82072 | 150.61680 | 21706 ft | 263 kts | 217° |
| 2026-05-05 04:46 | -34.83658 | 150.60625 | 21938 ft | 263 kts | 217° |
| 2026-05-05 04:46 | -34.85284 | 150.59541 | 22175 ft | 262 kts | 217° |
| 2026-05-05 04:46 | -34.86865 | 150.58488 | 22402 ft | 262 kts | 217° |
| 2026-05-05 04:47 | -34.88466 | 150.57421 | 22641 ft | 262 kts | 218° |
| 2026-05-05 04:47 | -34.90063 | 150.56357 | 22877 ft | 261 kts | 218° |
| 2026-05-05 04:47 | -34.91659 | 150.55292 | 23120 ft | 261 kts | 218° |
| 2026-05-05 04:47 | -34.93252 | 150.54228 | 23357 ft | 261 kts | 218° |
| 2026-05-05 04:48 | -34.94854 | 150.53180 | 23596 ft | 263 kts | 214° |
| 2026-05-05 04:48 | -34.96622 | 150.52474 | 23818 ft | 271 kts | 202° |
| 2026-05-05 04:48 | -34.98469 | 150.51972 | 24022 ft | 271 kts | 201° |
| 2026-05-05 04:48 | -35.00290 | 150.51462 | 24220 ft | 270 kts | 202° |
| 2026-05-05 04:49 | -35.02116 | 150.50911 | 24427 ft | 270 kts | 203° |
| 2026-05-05 04:49 | -35.03939 | 150.50360 | 24635 ft | 270 kts | 203° |
| 2026-05-05 04:49 | -35.05767 | 150.49819 | 24841 ft | 270 kts | 202° |
| 2026-05-05 04:49 | -35.07592 | 150.49277 | 25050 ft | 270 kts | 202° |
| 2026-05-05 04:50 | -35.09416 | 150.48737 | 25262 ft | 269 kts | 203° |
| 2026-05-05 04:50 | -35.11237 | 150.48193 | 25472 ft | 269 kts | 203° |
| 2026-05-05 04:50 | -35.13059 | 150.47650 | 25687 ft | 269 kts | 202° |
| 2026-05-05 04:50 | -35.14884 | 150.47108 | 25905 ft | 269 kts | 203° |
| 2026-05-05 04:51 | -35.16703 | 150.46566 | 26120 ft | 269 kts | 203° |
| 2026-05-05 04:51 | -35.18497 | 150.46032 | 26337 ft | 269 kts | 203° |
| 2026-05-05 04:51 | -35.20314 | 150.45490 | 26551 ft | 269 kts | 203° |
| 2026-05-05 04:51 | -35.22131 | 150.44947 | 26776 ft | 268 kts | 203° |
| 2026-05-05 04:52 | -35.23947 | 150.44405 | 27000 ft | 268 kts | 203° |
| 2026-05-05 04:52 | -35.25759 | 150.43864 | 27227 ft | 268 kts | 203° |
| 2026-05-05 04:52 | -35.27569 | 150.43323 | 27454 ft | 268 kts | 203° |
| 2026-05-05 04:52 | -35.29382 | 150.42781 | 27631 ft | 270 kts | 203° |
| 2026-05-05 04:53 | -35.31224 | 150.42227 | 27736 ft | 275 kts | 202° |
| 2026-05-05 04:53 | -35.33097 | 150.41666 | 27836 ft | 279 kts | 202° |
| 2026-05-05 04:53 | -35.34994 | 150.41101 | 27948 ft | 282 kts | 202° |
| 2026-05-05 04:53 | -35.36909 | 150.40527 | 28057 ft | 285 kts | 202° |
| 2026-05-05 04:54 | -35.38840 | 150.39945 | 28081 ft | 294 kts | 202° |
| 2026-05-05 04:54 | -35.42917 | 150.38723 | 28092 ft | 308 kts | 201° |
| 2026-05-05 04:55 | -35.47148 | 150.37456 | 28092 ft | 317 kts | 201° |
| 2026-05-05 04:55 | -35.51490 | 150.36152 | 28087 ft | 324 kts | 201° |
| 2026-05-05 04:56 | -35.55904 | 150.34824 | 28086 ft | 329 kts | 201° |
| 2026-05-05 04:56 | -35.60369 | 150.33482 | 28087 ft | 330 kts | 201° |
| 2026-05-05 04:57 | -35.64844 | 150.32132 | 28086 ft | 332 kts | 201° |
| 2026-05-05 04:57 | -35.69322 | 150.30779 | 28081 ft | 334 kts | 201° |
| 2026-05-05 04:58 | -35.73842 | 150.29414 | 28081 ft | 335 kts | 201° |
| 2026-05-05 04:58 | -35.78382 | 150.28040 | 28083 ft | 336 kts | 201° |
| 2026-05-05 04:59 | -35.82939 | 150.26660 | 28086 ft | 337 kts | 201° |
| 2026-05-05 04:59 | -35.87475 | 150.25284 | 28081 ft | 338 kts | 201° |
| 2026-05-05 05:00 | -35.92052 | 150.23894 | 28083 ft | 339 kts | 201° |
| 2026-05-05 05:00 | -35.96638 | 150.22500 | 28080 ft | 340 kts | 201° |
| 2026-05-05 05:01 | -36.01232 | 150.21102 | 28084 ft | 341 kts | 201° |
| 2026-05-05 05:01 | -36.05846 | 150.19696 | 28076 ft | 341 kts | 201° |
| 2026-05-05 05:02 | -36.10464 | 150.18287 | 28081 ft | 342 kts | 201° |
| 2026-05-05 05:02 | -36.15064 | 150.16882 | 28090 ft | 343 kts | 201° |
| 2026-05-05 05:03 | -36.19711 | 150.15461 | 28084 ft | 344 kts | 201° |
| 2026-05-05 05:03 | -36.24363 | 150.14036 | 28085 ft | 344 kts | 201° |
| 2026-05-05 05:04 | -36.29018 | 150.12610 | 28086 ft | 345 kts | 201° |
| 2026-05-05 05:04 | -36.33682 | 150.11176 | 28084 ft | 345 kts | 201° |
| 2026-05-05 05:05 | -36.38355 | 150.09741 | 28087 ft | 345 kts | 201° |
| 2026-05-05 05:05 | -36.43014 | 150.08307 | 28083 ft | 345 kts | 201° |
| 2026-05-05 05:06 | -36.47689 | 150.06867 | 28087 ft | 345 kts | 201° |
| 2026-05-05 05:06 | -36.52356 | 150.05427 | 28081 ft | 346 kts | 201° |
| 2026-05-05 05:07 | -36.57027 | 150.03985 | 28089 ft | 346 kts | 201° |
| 2026-05-05 05:07 | -36.61675 | 150.02547 | 28088 ft | 346 kts | 201° |
| 2026-05-05 05:08 | -36.66351 | 150.01099 | 28088 ft | 346 kts | 201° |
| 2026-05-05 05:08 | -36.70236 | 149.99894 | 28087 ft | 346 kts | 201° |
| 2026-05-05 05:09 | -36.74921 | 149.98440 | 28090 ft | 346 kts | 201° |
| 2026-05-05 05:09 | -36.79602 | 149.96986 | 28085 ft | 346 kts | 201° |
| 2026-05-05 05:10 | -36.84260 | 149.95536 | 28089 ft | 346 kts | 201° |
| 2026-05-05 05:10 | -36.88939 | 149.94079 | 28090 ft | 346 kts | 201° |
| 2026-05-05 05:11 | -36.93623 | 149.92618 | 28085 ft | 346 kts | 201° |
| 2026-05-05 05:11 | -36.98308 | 149.91155 | 28087 ft | 347 kts | 201° |
| 2026-05-05 05:12 | -37.02996 | 149.89689 | 28089 ft | 347 kts | 201° |
| 2026-05-05 05:12 | -37.07654 | 149.88230 | 28085 ft | 347 kts | 201° |
| 2026-05-05 05:13 | -37.12339 | 149.86761 | 28085 ft | 347 kts | 201° |
| 2026-05-05 05:13 | -37.17035 | 149.85287 | 28085 ft | 347 kts | 201° |
| 2026-05-05 05:14 | -37.21696 | 149.83822 | 28088 ft | 347 kts | 201° |
| 2026-05-05 05:14 | -37.26389 | 149.82344 | 28090 ft | 347 kts | 201° |
| 2026-05-05 05:15 | -37.31069 | 149.80871 | 28094 ft | 347 kts | 201° |
| 2026-05-05 05:15 | -37.35751 | 149.79393 | 28093 ft | 347 kts | 201° |
| 2026-05-05 05:16 | -37.40432 | 149.77914 | 28098 ft | 346 kts | 201° |
| 2026-05-05 05:16 | -37.45087 | 149.76442 | 28099 ft | 346 kts | 201° |
| 2026-05-05 05:17 | -37.49768 | 149.74959 | 28098 ft | 347 kts | 201° |
| 2026-05-05 05:17 | -37.54449 | 149.73475 | 28100 ft | 346 kts | 201° |
| 2026-05-05 05:18 | -37.59116 | 149.71968 | 28098 ft | 344 kts | 205° |
| 2026-05-05 05:18 | -37.61277 | 149.70805 | 28097 ft | 335 kts | 216° |
| 2026-05-05 05:18 | -37.63325 | 149.69414 | 28106 ft | 334 kts | 217° |
| 2026-05-05 05:19 | -37.67420 | 149.66710 | 28103 ft | 335 kts | 215° |
| 2026-05-05 05:19 | -37.71548 | 149.64006 | 28101 ft | 334 kts | 216° |
| 2026-05-05 05:20 | -37.75664 | 149.61296 | 28104 ft | 333 kts | 216° |
| 2026-05-05 05:20 | -37.79778 | 149.58587 | 28110 ft | 333 kts | 216° |
| 2026-05-05 05:21 | -37.83883 | 149.55879 | 28102 ft | 333 kts | 215° |
| 2026-05-05 05:21 | -37.87989 | 149.53168 | 28107 ft | 332 kts | 215° |
| 2026-05-05 05:22 | -37.92058 | 149.50478 | 28106 ft | 332 kts | 215° |
| 2026-05-05 05:22 | -37.96151 | 149.47770 | 28108 ft | 332 kts | 215° |
| 2026-05-05 05:23 | -38.00243 | 149.45056 | 28107 ft | 331 kts | 215° |
| 2026-05-05 05:23 | -38.04303 | 149.42362 | 28107 ft | 331 kts | 215° |
| 2026-05-05 05:24 | -38.08378 | 149.39654 | 28108 ft | 330 kts | 214° |
| 2026-05-05 05:24 | -38.12450 | 149.36945 | 28111 ft | 330 kts | 214° |
| 2026-05-05 05:25 | -38.16515 | 149.34235 | 28106 ft | 329 kts | 214° |
| 2026-05-05 05:25 | -38.20461 | 149.31418 | 28104 ft | 325 kts | 218° |
| 2026-05-05 05:26 | -38.24383 | 149.28519 | 28104 ft | 329 kts | 211° |
| 2026-05-05 05:26 | -38.28620 | 149.26262 | 28102 ft | 328 kts | 212° |
| 2026-05-05 05:27 | -38.32585 | 149.23462 | 28101 ft | 326 kts | 215° |
| 2026-05-05 05:27 | -38.38626 | 149.19458 | 28103 ft | 325 kts | 214° |
| 2026-05-05 05:28 | -38.42628 | 149.16754 | 28108 ft | 325 kts | 213° |
| 2026-05-05 05:28 | -38.46626 | 149.14070 | 28109 ft | 324 kts | 213° |
| 2026-05-05 05:29 | -38.50587 | 149.11402 | 28108 ft | 323 kts | 213° |
| 2026-05-05 05:29 | -38.54569 | 149.08718 | 28099 ft | 323 kts | 213° |
| 2026-05-05 05:30 | -38.58543 | 149.06035 | 28096 ft | 322 kts | 213° |
| 2026-05-05 05:30 | -38.62504 | 149.03357 | 28093 ft | 321 kts | 213° |
| 2026-05-05 05:31 | -38.66422 | 149.00706 | 28091 ft | 320 kts | 212° |
| 2026-05-05 05:31 | -38.68293 | 148.99440 | 28088 ft | 293 kts | 208° |
| 2026-05-05 05:31 | -38.70080 | 148.98229 | 28100 ft | 289 kts | 208° |
| 2026-05-05 05:32 | -38.71847 | 148.97029 | 28090 ft | 286 kts | 208° |
| 2026-05-05 05:32 | -38.73597 | 148.95841 | 28095 ft | 284 kts | 208° |
| 2026-05-05 05:32 | -38.75336 | 148.94660 | 28090 ft | 282 kts | 208° |
| 2026-05-05 05:32 | -38.77070 | 148.93483 | 28090 ft | 281 kts | 208° |
| 2026-05-05 05:33 | -38.78793 | 148.92311 | 28090 ft | 280 kts | 208° |
| 2026-05-05 05:33 | -38.80514 | 148.91142 | 28089 ft | 279 kts | 208° |
| 2026-05-05 05:33 | -38.82226 | 148.89976 | 28086 ft | 278 kts | 208° |
| 2026-05-05 05:33 | -38.83933 | 148.88814 | 28086 ft | 278 kts | 208° |
| 2026-05-05 05:34 | -38.85616 | 148.87668 | 28087 ft | 277 kts | 208° |
| 2026-05-05 05:34 | -38.87321 | 148.86506 | 28084 ft | 277 kts | 208° |
| 2026-05-05 05:34 | -38.89020 | 148.85347 | 28084 ft | 277 kts | 208° |
| 2026-05-05 05:34 | -38.90719 | 148.84189 | 28085 ft | 276 kts | 208° |
| 2026-05-05 05:35 | -38.92416 | 148.83030 | 28084 ft | 276 kts | 208° |
| 2026-05-05 05:35 | -38.94112 | 148.81872 | 28085 ft | 276 kts | 208° |
| 2026-05-05 05:35 | -38.95810 | 148.80710 | 28081 ft | 276 kts | 208° |
| 2026-05-05 05:35 | -38.97504 | 148.79553 | 28079 ft | 276 kts | 208° |
| 2026-05-05 05:36 | -38.99197 | 148.78394 | 28080 ft | 276 kts | 208° |
| 2026-05-05 05:36 | -39.00890 | 148.77235 | 28078 ft | 276 kts | 208° |
| 2026-05-05 05:36 | -39.02581 | 148.76077 | 28080 ft | 276 kts | 208° |
| 2026-05-05 05:36 | -39.04278 | 148.74915 | 28081 ft | 276 kts | 208° |
| 2026-05-05 05:37 | -39.05971 | 148.73754 | 28080 ft | 276 kts | 208° |
| 2026-05-05 05:37 | -39.07665 | 148.72592 | 28080 ft | 276 kts | 208° |
| 2026-05-05 05:37 | -39.09357 | 148.71430 | 28078 ft | 276 kts | 208° |
| 2026-05-05 05:37 | -39.11051 | 148.70266 | 28082 ft | 276 kts | 208° |
| 2026-05-05 05:38 | -39.12721 | 148.69119 | 28080 ft | 276 kts | 208° |
| 2026-05-05 05:38 | -39.14413 | 148.67956 | 28080 ft | 276 kts | 208° |
| 2026-05-05 05:38 | -39.16102 | 148.66795 | 28077 ft | 276 kts | 208° |
| 2026-05-05 05:38 | -39.17797 | 148.65627 | 28078 ft | 276 kts | 208° |
| 2026-05-05 05:39 | -39.19488 | 148.64463 | 28077 ft | 275 kts | 208° |
| 2026-05-05 05:39 | -39.21177 | 148.63299 | 28081 ft | 275 kts | 208° |
| 2026-05-05 05:39 | -39.22869 | 148.62133 | 28077 ft | 275 kts | 209° |
| 2026-05-05 05:39 | -39.24561 | 148.60965 | 28077 ft | 275 kts | 209° |
| 2026-05-05 05:40 | -39.26250 | 148.59799 | 28077 ft | 275 kts | 209° |
| 2026-05-05 05:40 | -39.27941 | 148.58632 | 28079 ft | 275 kts | 209° |
| 2026-05-05 05:40 | -39.29632 | 148.57463 | 28078 ft | 275 kts | 209° |
| 2026-05-05 05:40 | -39.31323 | 148.56295 | 28078 ft | 275 kts | 209° |
| 2026-05-05 05:41 | -39.32996 | 148.55137 | 28075 ft | 275 kts | 209° |
| 2026-05-05 05:41 | -39.34689 | 148.53966 | 28079 ft | 275 kts | 209° |
| 2026-05-05 05:41 | -39.36377 | 148.52797 | 28077 ft | 275 kts | 209° |
| 2026-05-05 05:41 | -39.38073 | 148.51622 | 28076 ft | 275 kts | 209° |
| 2026-05-05 05:42 | -39.39759 | 148.50454 | 28079 ft | 275 kts | 209° |
| 2026-05-05 05:42 | -39.41433 | 148.49292 | 28078 ft | 275 kts | 209° |
| 2026-05-05 05:42 | -39.43123 | 148.48120 | 28077 ft | 275 kts | 209° |
| 2026-05-05 05:42 | -39.44815 | 148.46944 | 28079 ft | 275 kts | 209° |
| 2026-05-05 05:43 | -39.46503 | 148.45772 | 28078 ft | 275 kts | 209° |
| 2026-05-05 05:43 | -39.48193 | 148.44597 | 28077 ft | 275 kts | 209° |
| 2026-05-05 05:43 | -39.49883 | 148.43421 | 28077 ft | 275 kts | 209° |
| 2026-05-05 05:43 | -39.51570 | 148.42247 | 28077 ft | 275 kts | 209° |
| 2026-05-05 05:44 | -39.53261 | 148.41070 | 28078 ft | 275 kts | 210° |
| 2026-05-05 05:44 | -39.54928 | 148.39908 | 28079 ft | 275 kts | 210° |
| 2026-05-05 05:44 | -39.56614 | 148.38733 | 28075 ft | 275 kts | 210° |
| 2026-05-05 05:44 | -39.58306 | 148.37554 | 28075 ft | 275 kts | 210° |
| 2026-05-05 05:45 | -39.59998 | 148.36372 | 28075 ft | 275 kts | 210° |
| 2026-05-05 05:45 | -39.61683 | 148.35196 | 28075 ft | 275 kts | 210° |
| 2026-05-05 05:45 | -39.63373 | 148.34015 | 28074 ft | 275 kts | 210° |
| 2026-05-05 05:45 | -39.65059 | 148.32837 | 28074 ft | 275 kts | 210° |
| 2026-05-05 05:46 | -39.66744 | 148.31657 | 28074 ft | 275 kts | 210° |
| 2026-05-05 05:46 | -39.68435 | 148.30475 | 28075 ft | 275 kts | 210° |
| 2026-05-05 05:46 | -39.70098 | 148.29310 | 28070 ft | 275 kts | 210° |
| 2026-05-05 05:46 | -39.71785 | 148.28128 | 28069 ft | 275 kts | 210° |
| 2026-05-05 05:47 | -39.73470 | 148.26947 | 28068 ft | 275 kts | 210° |
| 2026-05-05 05:47 | -39.75158 | 148.25763 | 28070 ft | 275 kts | 210° |
| 2026-05-05 05:47 | -39.76843 | 148.24581 | 28071 ft | 275 kts | 210° |
| 2026-05-05 05:47 | -39.78533 | 148.23394 | 28070 ft | 275 kts | 210° |
| 2026-05-05 05:48 | -39.80216 | 148.22212 | 28071 ft | 275 kts | 210° |
| 2026-05-05 05:48 | -39.81899 | 148.21028 | 28064 ft | 275 kts | 210° |
| 2026-05-05 05:48 | -39.83568 | 148.19855 | 28068 ft | 275 kts | 210° |
| 2026-05-05 05:48 | -39.85252 | 148.18670 | 28069 ft | 275 kts | 210° |
| 2026-05-05 05:49 | -39.86934 | 148.17485 | 28061 ft | 275 kts | 210° |
| 2026-05-05 05:49 | -39.88620 | 148.16297 | 28063 ft | 275 kts | 210° |
| 2026-05-05 05:49 | -39.90303 | 148.15111 | 28067 ft | 275 kts | 210° |
| 2026-05-05 05:49 | -39.91984 | 148.13926 | 28065 ft | 275 kts | 210° |
| 2026-05-05 05:50 | -39.93668 | 148.12737 | 28066 ft | 275 kts | 210° |
| 2026-05-05 05:50 | -39.95353 | 148.11548 | 28066 ft | 275 kts | 210° |
| 2026-05-05 05:50 | -39.97014 | 148.10373 | 28064 ft | 275 kts | 210° |
| 2026-05-05 05:50 | -39.98698 | 148.09183 | 28064 ft | 275 kts | 210° |
| 2026-05-05 05:51 | -40.00383 | 148.07991 | 28061 ft | 275 kts | 210° |
| 2026-05-05 05:51 | -40.02065 | 148.06801 | 28060 ft | 275 kts | 210° |
| 2026-05-05 05:51 | -40.03748 | 148.05610 | 28062 ft | 275 kts | 210° |
| 2026-05-05 05:51 | -40.05430 | 148.04418 | 28062 ft | 275 kts | 210° |
| 2026-05-05 05:52 | -40.07115 | 148.03223 | 28062 ft | 275 kts | 210° |
| 2026-05-05 05:52 | -40.08798 | 148.02030 | 28062 ft | 276 kts | 210° |
| 2026-05-05 05:52 | -40.10523 | 148.00934 | 28060 ft | 276 kts | 205° |
| 2026-05-05 05:52 | -40.12312 | 147.99988 | 28062 ft | 277 kts | 204° |
| 2026-05-05 05:53 | -40.14075 | 147.99055 | 28059 ft | 276 kts | 205° |
| 2026-05-05 05:53 | -40.15851 | 147.98088 | 28060 ft | 276 kts | 205° |
| 2026-05-05 05:53 | -40.17629 | 147.97120 | 28053 ft | 276 kts | 205° |
| 2026-05-05 05:53 | -40.19410 | 147.96153 | 28055 ft | 276 kts | 205° |
| 2026-05-05 05:54 | -40.21190 | 147.95189 | 28057 ft | 276 kts | 205° |
| 2026-05-05 05:54 | -40.22969 | 147.94223 | 28052 ft | 276 kts | 205° |
| 2026-05-05 05:54 | -40.24745 | 147.93259 | 28055 ft | 276 kts | 205° |
| 2026-05-05 05:54 | -40.26519 | 147.92295 | 28057 ft | 276 kts | 205° |
| 2026-05-05 05:55 | -40.28298 | 147.91328 | 28059 ft | 277 kts | 205° |
| 2026-05-05 05:55 | -40.30054 | 147.90373 | 28060 ft | 277 kts | 205° |
| 2026-05-05 05:55 | -40.31855 | 147.89392 | 28059 ft | 277 kts | 205° |
| 2026-05-05 05:55 | -40.33612 | 147.88435 | 28056 ft | 277 kts | 205° |
| 2026-05-05 05:56 | -40.35391 | 147.87465 | 28058 ft | 277 kts | 205° |
| 2026-05-05 05:56 | -40.37180 | 147.86490 | 27865 ft | 282 kts | 205° |
| 2026-05-05 05:56 | -40.39017 | 147.85486 | 27478 ft | 289 kts | 205° |
| 2026-05-05 05:56 | -40.40895 | 147.84462 | 27063 ft | 294 kts | 205° |
| 2026-05-05 05:57 | -40.42793 | 147.83426 | 26654 ft | 296 kts | 205° |
| 2026-05-05 05:57 | -40.44695 | 147.82387 | 26239 ft | 297 kts | 205° |
| 2026-05-05 05:57 | -40.46606 | 147.81341 | 25819 ft | 298 kts | 205° |
| 2026-05-05 05:57 | -40.48500 | 147.80305 | 25410 ft | 299 kts | 205° |
| 2026-05-05 05:58 | -40.50424 | 147.79251 | 24989 ft | 300 kts | 205° |
| 2026-05-05 05:58 | -40.52364 | 147.78189 | 24564 ft | 302 kts | 205° |
| 2026-05-05 05:58 | -40.54307 | 147.77123 | 24137 ft | 303 kts | 205° |
| 2026-05-05 05:58 | -40.55596 | 147.76416 | 23859 ft | 304 kts | 205° |
| 2026-05-05 05:59 | -40.57557 | 147.75340 | 23401 ft | 305 kts | 205° |
| 2026-05-05 05:59 | -40.59519 | 147.74262 | 22957 ft | 306 kts | 205° |
| 2026-05-05 05:59 | -40.61489 | 147.73181 | 22527 ft | 307 kts | 206° |
| 2026-05-05 05:59 | -40.63453 | 147.72099 | 22095 ft | 306 kts | 206° |
| 2026-05-05 06:00 | -40.66080 | 147.70656 | 21518 ft | 303 kts | 206° |
| 2026-05-05 06:00 | -40.67363 | 147.69948 | 21242 ft | 300 kts | 206° |
| 2026-05-05 06:00 | -40.69286 | 147.68890 | 20823 ft | 298 kts | 206° |
| 2026-05-05 06:00 | -40.71189 | 147.67840 | 20404 ft | 296 kts | 206° |
| 2026-05-05 06:01 | -40.73084 | 147.66794 | 19988 ft | 294 kts | 206° |
| 2026-05-05 06:01 | -40.74973 | 147.65751 | 19575 ft | 294 kts | 206° |
| 2026-05-05 06:01 | -40.76833 | 147.64724 | 19168 ft | 294 kts | 206° |
| 2026-05-05 06:01 | -40.78718 | 147.63683 | 18758 ft | 293 kts | 206° |
| 2026-05-05 06:02 | -40.80604 | 147.62638 | 18346 ft | 294 kts | 206° |
| 2026-05-05 06:02 | -40.82488 | 147.61600 | 17905 ft | 292 kts | 206° |
| 2026-05-05 06:02 | -40.84350 | 147.60566 | 17492 ft | 288 kts | 206° |
| 2026-05-05 06:02 | -40.86193 | 147.59545 | 17089 ft | 286 kts | 206° |
| 2026-05-05 06:03 | -40.88026 | 147.58529 | 16683 ft | 285 kts | 206° |
| 2026-05-05 06:03 | -40.89847 | 147.57521 | 16286 ft | 283 kts | 206° |
| 2026-05-05 06:03 | -40.91661 | 147.56514 | 15893 ft | 282 kts | 206° |
| 2026-05-05 06:03 | -40.93467 | 147.55509 | 15494 ft | 281 kts | 206° |
| 2026-05-05 06:04 | -40.95267 | 147.54510 | 15099 ft | 280 kts | 206° |
| 2026-05-05 06:04 | -40.97059 | 147.53513 | 14710 ft | 279 kts | 206° |
| 2026-05-05 06:04 | -40.98850 | 147.52518 | 14317 ft | 279 kts | 206° |
| 2026-05-05 06:04 | -41.00616 | 147.51533 | 13929 ft | 278 kts | 207° |
| 2026-05-05 06:05 | -41.02394 | 147.50543 | 13516 ft | 277 kts | 206° |
| 2026-05-05 06:05 | -41.04166 | 147.49558 | 13121 ft | 275 kts | 206° |
| 2026-05-05 06:05 | -41.05922 | 147.48577 | 12741 ft | 273 kts | 206° |
| 2026-05-05 06:05 | -41.07668 | 147.47602 | 12354 ft | 272 kts | 206° |
| 2026-05-05 06:06 | -41.09409 | 147.46631 | 11972 ft | 271 kts | 206° |
| 2026-05-05 06:06 | -41.11145 | 147.45662 | 11596 ft | 269 kts | 206° |
| 2026-05-05 06:06 | -41.12846 | 147.44710 | 11225 ft | 261 kts | 206° |
| 2026-05-05 06:06 | -41.14504 | 147.43786 | 10857 ft | 256 kts | 207° |
| 2026-05-05 06:07 | -41.16132 | 147.42872 | 10501 ft | 251 kts | 207° |
| 2026-05-05 06:07 | -41.17740 | 147.42000 | 10151 ft | 249 kts | 203° |
| 2026-05-05 06:07 | -41.19422 | 147.41449 | 9775 ft | 250 kts | 193° |
| 2026-05-05 06:07 | -41.21135 | 147.41101 | 9414 ft | 248 kts | 193° |
| 2026-05-05 06:08 | -41.22836 | 147.40749 | 9044 ft | 247 kts | 193° |
| 2026-05-05 06:08 | -41.24531 | 147.40398 | 8681 ft | 246 kts | 193° |
| 2026-05-05 06:08 | -41.26196 | 147.40063 | 8336 ft | 245 kts | 190° |
| 2026-05-05 06:08 | -41.27897 | 147.40355 | 7968 ft | 252 kts | 164° |
| 2026-05-05 06:09 | -41.29521 | 147.41249 | 7627 ft | 252 kts | 162° |
| 2026-05-05 06:09 | -41.31183 | 147.41911 | 7279 ft | 248 kts | 172° |
| 2026-05-05 06:09 | -41.32889 | 147.42196 | 6937 ft | 246 kts | 177° |
| 2026-05-05 06:09 | -41.34585 | 147.42460 | 6614 ft | 245 kts | 174° |
| 2026-05-05 06:10 | -41.36268 | 147.42806 | 6312 ft | 244 kts | 174° |
| 2026-05-05 06:10 | -41.37917 | 147.43129 | 6290 ft | 236 kts | 174° |
| 2026-05-05 06:10 | -41.39514 | 147.43434 | 6283 ft | 228 kts | 174° |
| 2026-05-05 06:10 | -41.41068 | 147.43734 | 6281 ft | 223 kts | 174° |
| 2026-05-05 06:11 | -41.42576 | 147.44024 | 6274 ft | 221 kts | 174° |
| 2026-05-05 06:11 | -41.44100 | 147.44316 | 6273 ft | 221 kts | 174° |
| 2026-05-05 06:11 | -41.45623 | 147.44606 | 6272 ft | 221 kts | 174° |
| 2026-05-05 06:11 | -41.47131 | 147.44899 | 6276 ft | 218 kts | 174° |
| 2026-05-05 06:12 | -41.48621 | 147.45204 | 6275 ft | 216 kts | 174° |
| 2026-05-05 06:12 | -41.50106 | 147.45492 | 6273 ft | 215 kts | 174° |
| 2026-05-05 06:12 | -41.51591 | 147.45775 | 6274 ft | 216 kts | 174° |
| 2026-05-05 06:12 | -41.53077 | 147.46063 | 6273 ft | 216 kts | 174° |
| 2026-05-05 06:13 | -41.54561 | 147.46350 | 6274 ft | 215 kts | 174° |
| 2026-05-05 06:13 | -41.56045 | 147.46639 | 6276 ft | 215 kts | 174° |
| 2026-05-05 06:13 | -41.57536 | 147.46929 | 6276 ft | 216 kts | 174° |
| 2026-05-05 06:13 | -41.59021 | 147.47220 | 6278 ft | 216 kts | 174° |
| 2026-05-05 06:14 | -41.60495 | 147.47506 | 6273 ft | 217 kts | 174° |
| 2026-05-05 06:14 | -41.61990 | 147.47798 | 6272 ft | 217 kts | 174° |
| 2026-05-05 06:14 | -41.63479 | 147.48089 | 6275 ft | 216 kts | 174° |
| 2026-05-05 06:14 | -41.64965 | 147.48378 | 6275 ft | 216 kts | 174° |
| 2026-05-05 06:15 | -41.66452 | 147.48660 | 6273 ft | 215 kts | 176° |
| 2026-05-05 06:15 | -41.67913 | 147.48494 | 6279 ft | 209 kts | 198° |
| 2026-05-05 06:15 | -41.69211 | 147.47689 | 6282 ft | 205 kts | 217° |
| 2026-05-05 06:15 | -41.70219 | 147.46380 | 6282 ft | 201 kts | 236° |
| 2026-05-05 06:16 | -41.70843 | 147.44726 | 6284 ft | 199 kts | 253° |
| 2026-05-05 06:16 | -41.71153 | 147.42930 | 6289 ft | 198 kts | 257° |
| 2026-05-05 06:16 | -41.71469 | 147.41130 | 6236 ft | 199 kts | 257° |
| 2026-05-05 06:16 | -41.71770 | 147.39382 | 5932 ft | 190 kts | 258° |
| 2026-05-05 06:17 | -41.71818 | 147.37645 | 5575 ft | 187 kts | 281° |
| 2026-05-05 06:17 | -41.71376 | 147.36082 | 5235 ft | 180 kts | 301° |
| 2026-05-05 06:17 | -41.70552 | 147.34868 | 4883 ft | 175 kts | 321° |
| 2026-05-05 06:17 | -41.69517 | 147.33981 | 4424 ft | 177 kts | 326° |
| 2026-05-05 06:18 | -41.68480 | 147.33083 | 3970 ft | 178 kts | 325° |
| 2026-05-05 06:18 | -41.67494 | 147.32235 | 3513 ft | 159 kts | 326° |
| 2026-05-05 06:18 | -41.66636 | 147.31499 | 3224 ft | 133 kts | 325° |
| 2026-05-05 06:18 | -41.65906 | 147.30869 | 3054 ft | 122 kts | 325° |
| 2026-05-05 06:19 | -41.65194 | 147.30258 | 2884 ft | 121 kts | 325° |
| 2026-05-05 06:19 | -41.64492 | 147.29654 | 2726 ft | 120 kts | 325° |
| 2026-05-05 06:19 | -41.63793 | 147.29053 | 2564 ft | 119 kts | 325° |
| 2026-05-05 06:19 | -41.63093 | 147.28454 | 2408 ft | 119 kts | 326° |
| 2026-05-05 06:20 | -41.62385 | 147.27846 | 2242 ft | 123 kts | 326° |
| 2026-05-05 06:20 | -41.61663 | 147.27226 | 2077 ft | 124 kts | 326° |
| 2026-05-05 06:20 | -41.60945 | 147.26613 | 1914 ft | 124 kts | 326° |
| 2026-05-05 06:20 | -41.60227 | 147.25993 | 1746 ft | 121 kts | 325° |
| 2026-05-05 06:21 | -41.59539 | 147.25403 | 1577 ft | 114 kts | 326° |
| 2026-05-05 06:21 | -41.58884 | 147.24844 | 1421 ft | 110 kts | 326° |
| 2026-05-05 06:21 | -41.58245 | 147.24305 | 1273 ft | 108 kts | 328° |
| 2026-05-05 06:21 | -41.57616 | 147.23763 | 1126 ft | 107 kts | 327° |
| 2026-05-05 06:22 | -41.57000 | 147.23233 | 988 ft | 104 kts | 329° |
| 2026-05-05 06:22 | -41.56396 | 147.22712 | 852 ft | 102 kts | 328° |
| 2026-05-05 06:22 | -41.55801 | 147.22211 | 744 ft | 104 kts | 327° |
| 2026-05-05 06:22 | -41.55163 | 147.21662 | 627 ft | 108 kts | 327° |
| 2026-05-05 06:23 | -41.54548 | 147.21132 | 563 ft | 101 kts | 327° |
| 2026-05-05 06:23 | -41.54099 | 147.20758 | 562 ft | 20 kts | 329° |
| 2026-05-05 06:23 | -41.54027 | 147.20635 | 563 ft | 18 kts | 229° |
| 2026-05-05 06:23 | -41.54101 | 147.20559 | 562 ft | 12 kts | 154° |
| 2026-05-05 06:24 | -41.54182 | 147.20631 | 561 ft | 16 kts | 145° |
| 2026-05-05 06:24 | -41.54257 | 147.20695 | 560 ft | 11 kts | 148° |
| 2026-05-05 06:24 | -41.54334 | 147.20759 | 564 ft | 15 kts | 147° |
| 2026-05-05 06:24 | -41.54426 | 147.20836 | 559 ft | 17 kts | 148° |
| 2026-05-05 06:25 | -41.54529 | 147.20926 | 559 ft | 19 kts | 147° |
| 2026-05-05 06:25 | -41.54643 | 147.21025 | 557 ft | 21 kts | 147° |
| 2026-05-05 06:25 | -41.54719 | 147.21088 | 557 ft | 0 kts | 149° |
| 2026-05-05 06:26 | -41.54721 | 147.21089 | 557 ft | 4 kts | 149° |
| 2026-05-05 06:26 | -41.54783 | 147.21082 | 556 ft | 10 kts | 235° |
| 2026-05-05 06:26 | -41.54827 | 147.21046 | 558 ft | 2 kts | 262° |
| 2026-05-05 06:26 | -41.54828 | 147.21035 | 555 ft | 0 kts | 259° |
| 2026-05-05 06:27 | -41.54830 | 147.21023 | 555 ft | 0 kts | 258° |